createdAt,value
2023-12-08T00:00:33.150Z,1003.3
2023-12-08T00:01:32.752Z,1003.5
2023-12-08T00:02:32.185Z,1003.6
2023-12-08T00:03:32.137Z,1003.6
2023-12-08T00:06:32.191Z,1003.4
2023-12-08T00:07:32.430Z,1003.3
2023-12-08T00:08:32.173Z,1003.2
2023-12-08T00:09:32.188Z,1003
2023-12-08T00:10:32.870Z,1002.9
2023-12-08T00:11:32.385Z,1002.9
2023-12-08T00:12:32.587Z,1002.8
2023-12-08T00:13:32.633Z,1002.7
2023-12-08T00:16:32.579Z,1002.6
2023-12-08T00:17:32.941Z,1002.8
2023-12-08T00:18:32.410Z,1002.9
2023-12-08T00:19:32.317Z,1003.1
2023-12-08T00:20:32.938Z,1003.1
2023-12-08T00:21:32.132Z,1003.1
2023-12-08T00:25:32.637Z,1003.2
2023-12-08T00:26:32.662Z,1003.1
2023-12-08T00:27:32.735Z,1003
2023-12-08T00:28:32.309Z,1003.1
2023-12-08T00:30:32.137Z,1003.1
2023-12-08T00:31:32.137Z,1003.1
2023-12-08T00:33:32.212Z,1003
2023-12-08T00:34:32.169Z,1003
2023-12-08T00:37:33.091Z,1002.9
2023-12-08T00:38:32.961Z,1002.9
2023-12-08T00:39:32.164Z,1002.8
2023-12-08T00:41:32.223Z,1002.7
2023-12-08T00:42:32.600Z,1002.8
2023-12-08T00:45:32.605Z,1002.8
2023-12-08T00:46:32.160Z,1002.8
2023-12-08T00:47:32.372Z,1002.7
2023-12-08T00:48:32.780Z,1002.7
2023-12-08T00:49:32.299Z,1002.7
2023-12-08T00:50:32.640Z,1002.7
2023-12-08T00:51:32.134Z,1002.8
2023-12-08T00:52:32.712Z,1002.7
2023-12-08T00:54:32.963Z,1002.6
2023-12-08T00:55:32.510Z,1002.6
2023-12-08T00:56:32.579Z,1002.7
2023-12-08T00:57:32.723Z,1002.7
2023-12-08T00:59:32.535Z,1002.7
2023-12-08T01:00:32.241Z,1002.6
2023-12-08T01:01:32.239Z,1002.6
2023-12-08T01:02:32.213Z,1002.5
2023-12-08T01:03:32.198Z,1002.6
2023-12-08T01:04:32.818Z,1002.5
2023-12-08T01:05:32.218Z,1002.5
2023-12-08T01:07:32.253Z,1002.5
2023-12-08T01:10:32.637Z,1002.5
2023-12-08T01:13:32.172Z,1002.6
2023-12-08T01:14:32.166Z,1002.6
2023-12-08T01:15:32.833Z,1002.7
2023-12-08T01:18:32.856Z,1002.6
2023-12-08T01:19:32.144Z,1002.6
2023-12-08T01:20:32.156Z,1002.6
2023-12-08T01:21:32.133Z,1002.6
2023-12-08T01:22:32.123Z,1002.6
2023-12-08T01:26:32.162Z,1002.6
2023-12-08T01:27:32.663Z,1002.6
2023-12-08T01:28:32.166Z,1002.5
2023-12-08T01:29:32.448Z,1002.5
2023-12-08T01:30:33.048Z,1002.5
2023-12-08T01:32:32.478Z,1002.5
2023-12-08T01:35:32.209Z,1002.5
2023-12-08T01:36:42.028Z,1002.5
2023-12-08T01:37:32.959Z,1002.5
2023-12-08T01:39:32.134Z,1002.4
2023-12-08T01:40:32.133Z,1002.4
2023-12-08T01:41:32.969Z,1002.4
2023-12-08T01:42:32.132Z,1002.4
2023-12-08T01:43:32.140Z,1002.6
2023-12-08T01:47:32.223Z,1002.4
2023-12-08T01:49:32.838Z,1002.4
2023-12-08T01:51:32.136Z,1002.4
2023-12-08T01:52:32.877Z,1002.4
2023-12-08T01:55:32.219Z,1002.4
2023-12-08T01:56:32.165Z,1002.4
2023-12-08T01:57:32.143Z,1002.4
2023-12-08T01:58:32.316Z,1002.3
2023-12-08T01:59:32.888Z,1002.3
2023-12-08T02:00:32.589Z,1002.4
2023-12-08T02:02:32.947Z,1002.3
2023-12-08T02:05:32.187Z,1002.3
2023-12-08T02:06:32.352Z,1002.3
2023-12-08T02:09:32.873Z,1002.3
2023-12-08T02:11:32.482Z,1002.2
2023-12-08T02:12:32.208Z,1002.2
2023-12-08T02:13:32.132Z,1002.2
2023-12-08T02:14:32.177Z,1002.2
2023-12-08T02:18:32.607Z,1002.2
2023-12-08T02:19:32.485Z,1002.2
2023-12-08T02:20:32.154Z,1002.2
2023-12-08T02:22:32.568Z,1002.2
2023-12-08T02:23:32.190Z,1002.2
2023-12-08T02:24:32.143Z,1002.2
2023-12-08T02:25:32.746Z,1002.2
2023-12-08T02:26:32.651Z,1002.2
2023-12-08T02:27:32.151Z,1002.2
2023-12-08T02:28:32.171Z,1002.2
2023-12-08T02:29:32.253Z,1002.1
2023-12-08T02:31:32.136Z,1002.1
2023-12-08T02:32:32.232Z,1002.1
2023-12-08T02:35:32.150Z,1002
2023-12-08T02:37:32.122Z,1002
2023-12-08T02:38:32.149Z,1001.9
2023-12-08T02:39:32.198Z,1001.9
2023-12-08T02:40:32.205Z,1001.9
2023-12-08T02:42:32.849Z,1001.9
2023-12-08T02:46:34.447Z,1001.9
2023-12-08T02:47:32.895Z,1001.8
2023-12-08T02:50:32.134Z,1001.7
2023-12-08T02:51:32.949Z,1001.7
2023-12-08T02:52:32.650Z,1001.7
2023-12-08T02:54:32.688Z,1001.7
2023-12-08T02:56:32.172Z,1001.8
2023-12-08T02:57:32.471Z,1001.9
2023-12-08T02:58:32.129Z,1001.9
2023-12-08T02:59:32.160Z,1001.9
2023-12-08T03:00:32.168Z,1001.8
2023-12-08T03:01:32.218Z,1001.8
2023-12-08T03:02:32.215Z,1001.8
2023-12-08T03:03:32.636Z,1001.8
2023-12-08T03:05:33.494Z,1001.6
2023-12-08T03:06:32.133Z,1001.5
2023-12-08T03:07:32.656Z,1001.5
2023-12-08T03:10:32.151Z,1001.5
2023-12-08T03:11:32.332Z,1001.5
2023-12-08T03:12:32.803Z,1001.5
2023-12-08T03:13:32.706Z,1001.5
2023-12-08T03:14:32.213Z,1001.4
2023-12-08T03:18:33.707Z,1001.3
2023-12-08T03:19:32.156Z,1001.2
2023-12-08T03:20:32.214Z,1001.2
2023-12-08T03:21:32.142Z,1001.2
2023-12-08T03:24:32.715Z,1001.1
2023-12-08T03:25:32.779Z,1001
2023-12-08T03:27:32.152Z,1001
2023-12-08T03:28:32.136Z,1001.1
2023-12-08T03:29:32.181Z,1001.1
2023-12-08T03:30:32.126Z,1001.2
2023-12-08T03:31:32.707Z,1001.2
2023-12-08T03:35:32.524Z,1001.2
2023-12-08T03:37:32.149Z,1001.1
2023-12-08T03:38:32.166Z,1001.1
2023-12-08T03:39:32.948Z,1001.1
2023-12-08T03:41:32.725Z,1001
2023-12-08T03:42:32.123Z,1001
2023-12-08T03:43:32.146Z,1001
2023-12-08T03:44:32.264Z,1001
2023-12-08T03:45:32.128Z,1001
2023-12-08T03:46:32.818Z,1001
2023-12-08T03:47:33.108Z,1001
2023-12-08T03:50:32.224Z,1001
2023-12-08T03:51:32.184Z,1000.9
2023-12-08T03:52:32.839Z,1001
2023-12-08T03:53:32.179Z,1001
2023-12-08T03:54:32.324Z,1001
2023-12-08T03:55:32.154Z,1001
2023-12-08T03:56:32.534Z,1001
2023-12-08T03:58:32.134Z,1001
2023-12-08T03:59:32.880Z,1001.1
2023-12-08T04:00:32.178Z,1001
2023-12-08T04:03:32.184Z,1001
2023-12-08T04:04:32.185Z,1001
2023-12-08T04:05:32.997Z,1001
2023-12-08T04:06:32.192Z,1001
2023-12-08T04:07:32.974Z,1000.9
2023-12-08T04:08:32.178Z,1001
2023-12-08T04:09:32.133Z,1001
2023-12-08T04:10:32.137Z,1001
2023-12-08T04:11:32.999Z,1001
2023-12-08T04:12:32.130Z,1001
2023-12-08T04:14:32.786Z,1001
2023-12-08T04:17:32.232Z,1000.9
2023-12-08T04:18:32.688Z,1000.9
2023-12-08T04:19:32.223Z,1001
2023-12-08T04:20:32.215Z,1000.9
2023-12-08T04:24:32.838Z,1000.8
2023-12-08T04:25:32.387Z,1000.8
2023-12-08T04:26:32.392Z,1000.7
2023-12-08T04:27:32.964Z,1000.8
2023-12-08T04:29:32.686Z,1000.8
2023-12-08T04:30:32.508Z,1000.8
2023-12-08T04:33:32.930Z,1000.8
2023-12-08T04:34:32.229Z,1000.7
2023-12-08T04:35:32.942Z,1000.7
2023-12-08T04:36:32.663Z,1000.7
2023-12-08T04:37:32.605Z,1000.7
2023-12-08T04:39:32.364Z,1000.7
2023-12-08T04:40:32.144Z,1000.8
2023-12-08T04:41:32.812Z,1000.8
2023-12-08T04:42:32.796Z,1000.8
2023-12-08T04:45:32.177Z,1000.8
2023-12-08T04:47:33.424Z,1000.9
2023-12-08T04:48:32.302Z,1000.9
2023-12-08T04:49:33.029Z,1000.9
2023-12-08T04:50:32.170Z,1000.9
2023-12-08T04:51:32.280Z,1000.9
2023-12-08T04:53:32.190Z,1000.9
2023-12-08T04:56:32.188Z,1001
2023-12-08T04:57:32.979Z,1001
2023-12-08T04:58:32.811Z,1001
2023-12-08T04:59:32.145Z,1001
2023-12-08T05:00:32.223Z,1001
2023-12-08T05:01:32.128Z,1001.1
2023-12-08T05:02:32.180Z,1001.1
2023-12-08T05:03:32.383Z,1001.2
2023-12-08T05:04:32.151Z,1001.2
2023-12-08T05:08:32.139Z,1001.2
2023-12-08T05:09:32.434Z,1001.2
2023-12-08T05:10:32.229Z,1001.2
2023-12-08T05:12:33.047Z,1001.2
2023-12-08T05:16:32.767Z,1001
2023-12-08T05:18:32.440Z,1000.9
2023-12-08T05:19:32.373Z,1000.8
2023-12-08T05:20:32.279Z,1000.8
2023-12-08T05:21:32.126Z,1000.9
2023-12-08T05:22:32.241Z,1000.9
2023-12-08T05:25:32.182Z,1000.9
2023-12-08T05:26:32.947Z,1000.9
2023-12-08T05:27:32.247Z,1000.9
2023-12-08T05:28:32.823Z,1001
2023-12-08T05:30:32.141Z,1001
2023-12-08T05:31:32.137Z,1001
2023-12-08T05:32:32.939Z,1001
2023-12-08T05:34:32.149Z,1001
2023-12-08T05:35:32.136Z,1001
2023-12-08T05:39:32.346Z,1001
2023-12-08T05:40:32.128Z,1001.1
2023-12-08T05:41:32.798Z,1001.1
2023-12-08T05:42:32.132Z,1001.1
2023-12-08T05:45:32.129Z,1001.1
2023-12-08T05:46:32.162Z,1001.1
2023-12-08T05:47:32.582Z,1001.1
2023-12-08T05:48:32.322Z,1001.1
2023-12-08T05:49:32.843Z,1001.1
2023-12-08T05:50:32.757Z,1001.1
2023-12-08T05:51:32.590Z,1001.1
2023-12-08T05:54:32.127Z,1001.2
2023-12-08T05:55:32.129Z,1001.2
2023-12-08T05:56:32.169Z,1001.1
2023-12-08T05:57:32.738Z,1001.1
2023-12-08T05:58:33.018Z,1001.2
2023-12-08T06:00:32.437Z,1001.2
2023-12-08T06:01:32.894Z,1001.2
2023-12-08T06:02:32.838Z,1001.2
2023-12-08T06:05:32.951Z,1001.2
2023-12-08T06:09:32.132Z,1001.1
2023-12-08T06:10:33.004Z,1001.1
2023-12-08T06:11:32.410Z,1001
2023-12-08T06:12:32.136Z,1001
2023-12-08T06:13:32.624Z,1001.1
2023-12-08T06:15:32.430Z,1001
2023-12-08T06:16:32.293Z,1001
2023-12-08T06:20:32.129Z,1000.9
2023-12-08T06:21:32.828Z,1000.9
2023-12-08T06:22:32.133Z,1001
2023-12-08T06:23:32.147Z,1001
2023-12-08T06:24:32.734Z,1001
2023-12-08T06:26:32.127Z,1000.9
2023-12-08T06:27:32.143Z,1001
2023-12-08T06:28:32.133Z,1001
2023-12-08T06:29:32.378Z,1001.1
2023-12-08T06:32:32.127Z,1001
2023-12-08T06:33:32.414Z,1001.1
2023-12-08T06:34:32.301Z,1001.1
2023-12-08T06:36:32.297Z,1001
2023-12-08T06:37:32.131Z,1001
2023-12-08T06:39:32.127Z,1001
2023-12-08T06:40:32.402Z,1001
2023-12-08T06:42:32.144Z,1001
2023-12-08T06:43:32.167Z,1001
2023-12-08T06:44:32.133Z,1001
2023-12-08T06:47:32.629Z,1001
2023-12-08T06:49:32.339Z,1001.1
2023-12-08T06:50:32.125Z,1001.1
2023-12-08T06:51:32.348Z,1001.1
2023-12-08T06:53:32.131Z,1001.1
2023-12-08T06:54:32.142Z,1001.1
2023-12-08T06:55:32.154Z,1001.2
2023-12-08T06:57:31.598Z,1001.2
2023-12-08T06:58:32.280Z,1001.2
2023-12-08T06:59:32.371Z,1001.2
2023-12-08T07:00:32.182Z,1001.2
2023-12-08T07:01:32.273Z,1001.1
2023-12-08T07:04:32.300Z,1001.2
2023-12-08T07:05:33.031Z,1001.3
2023-12-08T07:07:32.133Z,1001.3
2023-12-08T07:09:32.127Z,1001.3
2023-12-08T07:10:32.378Z,1001.2
2023-12-08T07:11:32.290Z,1001.3
2023-12-08T07:15:32.130Z,1001.2
2023-12-08T07:16:32.520Z,1001.2
2023-12-08T07:18:32.783Z,1001.3
2023-12-08T07:22:32.126Z,1001.4
2023-12-08T07:23:32.443Z,1001.4
2023-12-08T07:25:32.147Z,1001.4
2023-12-08T07:26:32.451Z,1001.4
2023-12-08T07:27:32.866Z,1001.4
2023-12-08T07:30:32.150Z,1001.4
2023-12-08T07:32:32.191Z,1001.3
2023-12-08T07:33:32.408Z,1001.3
2023-12-08T07:34:32.957Z,1001.2
2023-12-08T07:36:32.673Z,1001.3
2023-12-08T07:37:32.762Z,1001.2
2023-12-08T07:38:32.139Z,1001.3
2023-12-08T07:39:33.052Z,1001.4
2023-12-08T07:41:32.141Z,1001.4
2023-12-08T07:43:32.129Z,1001.3
2023-12-08T07:44:32.657Z,1001.4
2023-12-08T07:46:32.148Z,1001.3
2023-12-08T07:47:32.162Z,1001.3
2023-12-08T07:49:32.651Z,1001.3
2023-12-08T07:52:32.128Z,1001.3
2023-12-08T07:53:32.835Z,1001.3
2023-12-08T07:56:32.464Z,1001.3
2023-12-08T07:58:32.160Z,1001.4
2023-12-08T07:59:32.329Z,1001.4
2023-12-08T08:00:32.440Z,1001.3
2023-12-08T08:01:32.171Z,1001.3
2023-12-08T08:05:32.135Z,1001.4
2023-12-08T08:06:32.234Z,1001.3
2023-12-08T08:07:32.424Z,1001.4
2023-12-08T08:08:32.158Z,1001.4
2023-12-08T08:12:32.557Z,1001.4
2023-12-08T08:13:32.126Z,1001.4
2023-12-08T08:14:32.466Z,1001.4
2023-12-08T08:15:32.805Z,1001.4
2023-12-08T08:16:32.850Z,1001.4
2023-12-08T08:20:32.981Z,1001.4
2023-12-08T08:21:32.683Z,1001.4
2023-12-08T08:22:33.232Z,1001.4
2023-12-08T08:23:32.988Z,1001.4
2023-12-08T08:24:32.203Z,1001.4
2023-12-08T08:26:32.931Z,1001.5
2023-12-08T08:29:32.125Z,1001.5
2023-12-08T08:30:32.208Z,1001.5
2023-12-08T08:32:32.401Z,1001.6
2023-12-08T08:33:32.909Z,1001.5
2023-12-08T08:37:33.030Z,1001.6
2023-12-08T08:38:32.124Z,1001.5
2023-12-08T08:39:32.131Z,1001.5
2023-12-08T08:40:32.128Z,1001.5
2023-12-08T08:41:32.138Z,1001.5
2023-12-08T08:44:33.013Z,1001.5
2023-12-08T08:46:32.142Z,1001.5
2023-12-08T08:48:32.289Z,1001.5
2023-12-08T08:50:40.733Z,1001.5
2023-12-08T08:51:32.738Z,1001.5
2023-12-08T08:53:32.831Z,1001.6
2023-12-08T08:54:32.960Z,1001.6
2023-12-08T08:56:32.176Z,1001.6
2023-12-08T08:57:32.130Z,1001.6
2023-12-08T09:01:32.191Z,1001.6
2023-12-08T09:02:32.131Z,1001.7
2023-12-08T09:03:32.368Z,1001.7
2023-12-08T09:04:32.401Z,1001.7
2023-12-08T09:05:32.629Z,1001.7
2023-12-08T09:06:32.255Z,1001.7
2023-12-08T09:07:34.229Z,1001.8
2023-12-08T09:09:32.239Z,1001.8
2023-12-08T09:10:32.132Z,1001.8
2023-12-08T09:11:32.132Z,1001.7
2023-12-08T09:12:32.155Z,1001.8
2023-12-08T09:13:32.725Z,1001.8
2023-12-08T09:17:32.165Z,1001.8
2023-12-08T09:18:32.303Z,1001.7
2023-12-08T09:21:34.174Z,1001.8
2023-12-08T09:22:32.137Z,1001.8
2023-12-08T09:24:32.123Z,1001.8
2023-12-08T09:25:32.127Z,1001.8
2023-12-08T09:26:32.206Z,1001.8
2023-12-08T09:27:32.171Z,1001.8
2023-12-08T09:28:32.201Z,1001.7
2023-12-08T09:29:32.258Z,1001.8
2023-12-08T09:30:32.141Z,1001.8
2023-12-08T09:31:32.127Z,1001.8
2023-12-08T09:32:32.161Z,1001.8
2023-12-08T09:33:32.955Z,1001.8
2023-12-08T09:34:34.087Z,1001.8
2023-12-08T09:36:32.159Z,1001.9
2023-12-08T09:37:36.695Z,1001.9
2023-12-08T09:39:32.122Z,1001.9
2023-12-08T09:40:32.123Z,1001.9
2023-12-08T09:41:32.710Z,1002
2023-12-08T09:42:32.449Z,1002
2023-12-08T09:43:32.636Z,1002
2023-12-08T09:45:32.236Z,1002
2023-12-08T09:48:32.217Z,1002
2023-12-08T09:49:32.331Z,1002
2023-12-08T09:50:32.146Z,1002
2023-12-08T09:55:32.590Z,1002
2023-12-08T09:56:32.237Z,1002
2023-12-08T09:57:33.096Z,1001.9
2023-12-08T10:00:32.680Z,1001.9
2023-12-08T10:01:32.718Z,1002
2023-12-08T10:03:32.328Z,1001.9
2023-12-08T10:05:33.025Z,1001.9
2023-12-08T10:07:32.133Z,1001.9
2023-12-08T10:08:32.134Z,1001.9
2023-12-08T10:09:32.115Z,1001.9
2023-12-08T10:10:32.131Z,1001.9
2023-12-08T10:11:32.490Z,1001.8
2023-12-08T10:14:32.424Z,1001.9
2023-12-08T10:17:32.125Z,1001.9
2023-12-08T10:18:32.519Z,1001.8
2023-12-08T10:19:32.206Z,1001.8
2023-12-08T10:20:32.738Z,1001.9
2023-12-08T10:21:33.016Z,1001.8
2023-12-08T10:24:32.169Z,1001.8
2023-12-08T10:26:32.117Z,1001.8
2023-12-08T10:27:32.128Z,1001.8
2023-12-08T10:28:32.199Z,1001.8
2023-12-08T10:29:32.142Z,1001.8
2023-12-08T10:31:32.456Z,1001.9
2023-12-08T10:32:32.754Z,1001.8
2023-12-08T10:33:32.240Z,1001.8
2023-12-08T10:34:32.736Z,1001.8
2023-12-08T10:36:32.143Z,1001.9
2023-12-08T10:37:32.116Z,1001.9
2023-12-08T10:38:32.656Z,1001.9
2023-12-08T10:39:32.881Z,1001.9
2023-12-08T10:42:32.625Z,1002
2023-12-08T10:43:32.148Z,1002
2023-12-08T10:46:32.182Z,1002
2023-12-08T10:47:32.140Z,1002.1
2023-12-08T10:48:32.210Z,1002.1
2023-12-08T10:49:32.327Z,1002.1
2023-12-08T10:50:32.894Z,1002.1
2023-12-08T10:53:32.720Z,1002.1
2023-12-08T10:54:32.963Z,1002.1
2023-12-08T10:55:32.118Z,1002
2023-12-08T10:56:32.942Z,1002.1
2023-12-08T10:57:32.127Z,1002.1
2023-12-08T10:58:32.339Z,1002.2
2023-12-08T10:59:32.124Z,1002.2
2023-12-08T11:00:32.188Z,1002.1
2023-12-08T11:01:32.259Z,1002.1
2023-12-08T11:02:32.728Z,1002.1
2023-12-08T11:04:32.157Z,1002.1
2023-12-08T11:05:32.814Z,1002.1
2023-12-08T11:06:32.901Z,1002.2
2023-12-08T11:10:32.143Z,1002.2
2023-12-08T11:11:32.140Z,1002.1
2023-12-08T11:15:32.186Z,1002.1
2023-12-08T11:16:32.323Z,1002.1
2023-12-08T11:17:32.194Z,1002.2
2023-12-08T11:18:32.393Z,1002.1
2023-12-08T11:19:32.304Z,1002.2
2023-12-08T11:20:32.141Z,1002.1
2023-12-08T11:24:32.143Z,1002
2023-12-08T11:25:32.147Z,1002.1
2023-12-08T11:26:32.152Z,1002.1
2023-12-08T11:27:32.805Z,1002
2023-12-08T11:28:32.196Z,1002.1
2023-12-08T11:32:32.230Z,1002.1
2023-12-08T11:33:32.712Z,1002.2
2023-12-08T11:35:32.689Z,1002.2
2023-12-08T11:37:32.142Z,1002.1
2023-12-08T11:38:32.393Z,1002.1
2023-12-08T11:41:32.160Z,1002.1
2023-12-08T11:42:32.142Z,1002.1
2023-12-08T11:43:32.150Z,1002.1
2023-12-08T11:44:32.199Z,1002.1
2023-12-08T11:45:32.302Z,1002.2
2023-12-08T11:47:32.349Z,1002.2
2023-12-08T11:51:32.145Z,1002.1
2023-12-08T11:52:32.147Z,1002.2
2023-12-08T11:54:32.143Z,1002.2
2023-12-08T11:57:32.438Z,1002.2
2023-12-08T11:58:32.170Z,1002.2
2023-12-08T11:59:32.135Z,1002.2
2023-12-08T12:00:32.268Z,1002.2
2023-12-08T12:02:32.341Z,1002.1
2023-12-08T12:03:32.226Z,1002.1
2023-12-08T12:06:32.683Z,1002.1
2023-12-08T12:07:32.838Z,1002.1
2023-12-08T12:08:32.652Z,1002.1
2023-12-08T12:09:32.220Z,1002.1
2023-12-08T12:11:36.421Z,1002.1
2023-12-08T12:12:32.128Z,1002.1
2023-12-08T12:13:32.112Z,1002.1
2023-12-08T12:14:32.884Z,1002
2023-12-08T12:15:32.206Z,1002.1
2023-12-08T12:16:32.115Z,1002.1
2023-12-08T12:17:32.524Z,1002.1
2023-12-08T12:21:32.484Z,1002.2
2023-12-08T12:22:32.122Z,1002.2
2023-12-08T12:23:32.223Z,1002.2
2023-12-08T12:24:32.772Z,1002.2
2023-12-08T12:25:32.819Z,1002.3
2023-12-08T12:27:31.194Z,1002.3
2023-12-08T12:28:32.759Z,1002.3
2023-12-08T12:31:32.185Z,1002.2
2023-12-08T12:32:32.143Z,1002.2
2023-12-08T12:33:32.962Z,1002.2
2023-12-08T12:36:33.532Z,1002.2
2023-12-08T12:37:32.117Z,1002.2
2023-12-08T12:38:32.605Z,1002.3
2023-12-08T12:40:32.129Z,1002.3
2023-12-08T12:41:32.199Z,1002.3
2023-12-08T12:42:32.591Z,1002.4
2023-12-08T12:43:32.138Z,1002.4
2023-12-08T12:44:32.124Z,1002.4
2023-12-08T12:45:33.278Z,1002.3
2023-12-08T12:47:32.267Z,1002.3
2023-12-08T12:48:32.325Z,1002.4
2023-12-08T12:49:32.355Z,1002.4
2023-12-08T12:50:32.117Z,1002.4
2023-12-08T12:51:32.913Z,1002.5
2023-12-08T12:52:32.179Z,1002.5
2023-12-08T12:55:32.121Z,1002.5
2023-12-08T12:56:32.120Z,1002.5
2023-12-08T12:57:32.562Z,1002.5
2023-12-08T12:58:32.124Z,1002.4
2023-12-08T12:59:32.648Z,1002.4
2023-12-08T13:00:32.154Z,1002.5
2023-12-08T13:01:32.126Z,1002.5
2023-12-08T13:02:32.142Z,1002.5
2023-12-08T13:03:32.849Z,1002.6
2023-12-08T13:04:32.294Z,1002.6
2023-12-08T13:05:32.301Z,1002.6
2023-12-08T13:06:32.214Z,1002.6
2023-12-08T13:07:32.124Z,1002.6
2023-12-08T13:08:32.753Z,1002.6
2023-12-08T13:09:32.945Z,1002.6
2023-12-08T13:10:32.813Z,1002.7
2023-12-08T13:11:32.941Z,1002.6
2023-12-08T13:15:32.901Z,1002.6
2023-12-08T13:17:32.711Z,1002.7
2023-12-08T13:18:32.362Z,1002.7
2023-12-08T13:20:35.374Z,1002.7
2023-12-08T13:21:32.221Z,1002.7
2023-12-08T13:23:32.117Z,1002.7
2023-12-08T13:24:32.181Z,1002.7
2023-12-08T13:25:32.591Z,1002.8
2023-12-08T13:26:33.441Z,1002.8
2023-12-08T13:27:32.998Z,1002.8
2023-12-08T13:29:32.115Z,1002.8
2023-12-08T13:30:32.514Z,1002.8
2023-12-08T13:31:32.512Z,1002.9
2023-12-08T13:32:32.707Z,1002.8
2023-12-08T13:34:32.320Z,1002.9
2023-12-08T13:35:32.158Z,1003
2023-12-08T13:36:32.755Z,1003
2023-12-08T13:37:32.772Z,1002.9
2023-12-08T13:41:32.119Z,1002.8
2023-12-08T13:42:32.414Z,1002.8
2023-12-08T13:43:32.731Z,1002.8
2023-12-08T13:44:32.666Z,1002.8
2023-12-08T13:45:32.220Z,1002.8
2023-12-08T13:46:32.130Z,1002.9
2023-12-08T13:49:32.678Z,1002.9
2023-12-08T13:50:34.436Z,1003
2023-12-08T13:51:39.493Z,1003
2023-12-08T13:54:32.378Z,1003
2023-12-08T13:56:32.867Z,1003.1
2023-12-08T13:58:32.131Z,1003.1
2023-12-08T13:59:32.139Z,1003.1
2023-12-08T14:00:32.243Z,1003.1
2023-12-08T14:01:32.730Z,1003.1
2023-12-08T14:02:32.848Z,1003.1
2023-12-08T14:04:32.301Z,1003.2
2023-12-08T14:05:32.205Z,1003.2
2023-12-08T14:06:32.953Z,1003.2
2023-12-08T14:07:32.910Z,1003.2
2023-12-08T14:10:32.118Z,1003.2
2023-12-08T14:11:32.620Z,1003.2
2023-12-08T14:12:32.160Z,1003.2
2023-12-08T14:13:32.155Z,1003.3
2023-12-08T14:14:32.146Z,1003.3
2023-12-08T14:15:32.258Z,1003.3
2023-12-08T14:16:32.153Z,1003.3
2023-12-08T14:17:32.571Z,1003.2
2023-12-08T14:18:32.726Z,1003.3
2023-12-08T14:21:32.168Z,1003.3
2023-12-08T14:22:32.877Z,1003.3
2023-12-08T14:23:32.596Z,1003.3
2023-12-08T14:25:32.131Z,1003.3
2023-12-08T14:26:32.940Z,1003.3
2023-12-08T14:27:34.640Z,1003.3
2023-12-08T14:28:32.128Z,1003.3
2023-12-08T14:29:32.866Z,1003.3
2023-12-08T14:30:32.177Z,1003.3
2023-12-08T14:31:32.404Z,1003.3
2023-12-08T14:33:33.194Z,1003.3
2023-12-08T14:34:32.241Z,1003.3
2023-12-08T14:35:33.115Z,1003.3
2023-12-08T14:39:32.189Z,1003.3
2023-12-08T14:40:32.702Z,1003.3
2023-12-08T14:42:32.128Z,1003.3
2023-12-08T14:43:32.564Z,1003.3
2023-12-08T14:44:32.888Z,1003.3
2023-12-08T14:45:32.133Z,1003.3
2023-12-08T14:47:32.224Z,1003.3
2023-12-08T14:49:32.457Z,1003.3
2023-12-08T14:50:32.154Z,1003.4
2023-12-08T14:51:32.162Z,1003.4
2023-12-08T14:52:32.677Z,1003.4
2023-12-08T14:53:32.842Z,1003.5
2023-12-08T14:54:37.646Z,1003.4
2023-12-08T14:55:32.497Z,1003.5
2023-12-08T14:56:32.545Z,1003.5
2023-12-08T14:57:32.220Z,1003.4
2023-12-08T14:58:32.146Z,1003.5
2023-12-08T15:01:32.296Z,1003.5
2023-12-08T15:02:32.577Z,1003.5
2023-12-08T15:03:32.789Z,1003.5
2023-12-08T15:04:32.782Z,1003.6
2023-12-08T15:06:32.177Z,1003.6
2023-12-08T15:07:32.272Z,1003.6
2023-12-08T15:09:32.248Z,1003.6
2023-12-08T15:11:32.465Z,1003.6
2023-12-08T15:12:33.036Z,1003.6
2023-12-08T15:16:32.205Z,1003.6
2023-12-08T15:17:32.186Z,1003.7
2023-12-08T15:18:33.404Z,1003.7
2023-12-08T15:19:32.225Z,1003.7
2023-12-08T15:20:32.429Z,1003.7
2023-12-08T15:22:32.684Z,1003.7
2023-12-08T15:23:32.930Z,1003.7
2023-12-08T15:24:32.132Z,1003.7
2023-12-08T15:25:32.137Z,1003.7
2023-12-08T15:26:32.418Z,1003.7
2023-12-08T15:27:32.451Z,1003.7
2023-12-08T15:28:32.785Z,1003.7
2023-12-08T15:29:32.127Z,1003.7
2023-12-08T15:30:32.175Z,1003.7
2023-12-08T15:31:32.303Z,1003.7
2023-12-08T15:32:32.176Z,1003.8
2023-12-08T15:33:32.531Z,1003.7
2023-12-08T15:34:32.287Z,1003.7
2023-12-08T15:36:32.121Z,1003.8
2023-12-08T15:37:32.875Z,1003.8
2023-12-08T15:38:32.141Z,1003.8
2023-12-08T15:39:32.128Z,1003.8
2023-12-08T15:40:32.793Z,1003.8
2023-12-08T15:41:32.158Z,1003.8
2023-12-08T15:42:32.136Z,1003.9
2023-12-08T15:43:32.467Z,1003.8
2023-12-08T15:44:32.132Z,1003.9
2023-12-08T15:47:32.509Z,1003.9
2023-12-08T15:48:32.286Z,1003.9
2023-12-08T15:49:32.978Z,1003.9
2023-12-08T15:52:32.616Z,1003.8
2023-12-08T15:53:32.137Z,1003.8
2023-12-08T15:55:32.125Z,1003.8
2023-12-08T15:57:32.162Z,1003.9
2023-12-08T15:58:32.125Z,1003.9
2023-12-08T15:59:32.185Z,1003.9
2023-12-08T16:00:32.970Z,1003.9
2023-12-08T16:01:33.029Z,1003.9
2023-12-08T16:02:32.211Z,1003.9
2023-12-08T16:04:32.832Z,1003.9
2023-12-08T16:05:32.170Z,1004
2023-12-08T16:08:32.511Z,1004
2023-12-08T16:09:33.054Z,1004
2023-12-08T16:10:32.138Z,1004
2023-12-08T16:11:32.141Z,1004.1
2023-12-08T16:12:32.546Z,1004.1
2023-12-08T16:13:32.146Z,1004.2
2023-12-08T16:14:32.141Z,1004.2
2023-12-08T16:15:32.386Z,1004.2
2023-12-08T16:17:32.158Z,1004.2
2023-12-08T16:18:32.982Z,1004.2
2023-12-08T16:19:33.067Z,1004.2
2023-12-08T16:21:32.834Z,1004.2
2023-12-08T16:24:32.453Z,1004.2
2023-12-08T16:26:34.343Z,1004.3
2023-12-08T16:28:32.126Z,1004.3
2023-12-08T16:29:32.291Z,1004.4
2023-12-08T16:30:32.561Z,1004.4
2023-12-08T16:32:32.168Z,1004.3
2023-12-08T16:33:32.360Z,1004.3
2023-12-08T16:34:32.507Z,1004.4
2023-12-08T16:37:32.516Z,1004.5
2023-12-08T16:38:32.906Z,1004.5
2023-12-08T16:40:32.916Z,1004.5
2023-12-08T16:43:32.584Z,1004.5
2023-12-08T16:44:32.576Z,1004.5
2023-12-08T16:45:32.199Z,1004.6
2023-12-08T16:46:32.133Z,1004.6
2023-12-08T16:47:32.722Z,1004.5
2023-12-08T16:49:32.267Z,1004.6
2023-12-08T16:50:32.135Z,1004.6
2023-12-08T16:51:32.732Z,1004.6
2023-12-08T16:52:32.133Z,1004.6
2023-12-08T16:53:32.315Z,1004.6
2023-12-08T16:54:32.652Z,1004.6
2023-12-08T16:57:32.240Z,1004.6
2023-12-08T16:58:32.319Z,1004.6
2023-12-08T17:00:32.227Z,1004.7
2023-12-08T17:01:34.233Z,1004.7
2023-12-08T17:02:32.207Z,1004.7
2023-12-08T17:03:32.295Z,1004.7
2023-12-08T17:04:32.318Z,1004.7
2023-12-08T17:07:32.204Z,1004.7
2023-12-08T17:09:32.190Z,1004.8
2023-12-08T17:10:32.162Z,1004.8
2023-12-08T17:11:32.161Z,1004.8
2023-12-08T17:12:32.979Z,1004.8
2023-12-08T17:15:32.654Z,1004.8
2023-12-08T17:18:32.637Z,1004.8
2023-12-08T17:19:32.934Z,1004.9
2023-12-08T17:20:32.135Z,1004.9
2023-12-08T17:21:32.516Z,1004.8
2023-12-08T17:25:32.503Z,1004.9
2023-12-08T17:26:39.168Z,1004.9
2023-12-08T17:27:32.160Z,1004.9
2023-12-08T17:30:32.209Z,1004.9
2023-12-08T17:31:32.164Z,1004.9
2023-12-08T17:32:32.571Z,1004.9
2023-12-08T17:34:32.271Z,1004.9
2023-12-08T17:35:32.120Z,1004.9
2023-12-08T17:36:32.129Z,1004.9
2023-12-08T17:37:32.175Z,1004.9
2023-12-08T17:38:32.174Z,1004.9
2023-12-08T17:39:32.132Z,1004.8
2023-12-08T17:40:32.194Z,1004.9
2023-12-08T17:41:32.704Z,1004.8
2023-12-08T17:42:32.739Z,1004.9
2023-12-08T17:45:33.133Z,1004.9
2023-12-08T17:46:32.357Z,1004.9
2023-12-08T17:47:32.130Z,1004.9
2023-12-08T17:50:32.141Z,1005
2023-12-08T17:51:32.182Z,1005
2023-12-08T17:52:32.411Z,1005
2023-12-08T17:54:32.748Z,1005.1
2023-12-08T17:55:32.151Z,1005
2023-12-08T17:56:32.373Z,1005.1
2023-12-08T17:58:32.133Z,1005.1
2023-12-08T17:59:32.139Z,1005
2023-12-08T18:00:33.061Z,1005.1
2023-12-08T18:01:32.202Z,1005.1
2023-12-08T18:06:32.165Z,1005.1
2023-12-08T18:07:32.667Z,1005.1
2023-12-08T18:09:33.750Z,1005.1
2023-12-08T18:11:32.316Z,1005
2023-12-08T18:13:32.352Z,1005
2023-12-08T18:15:32.352Z,1005.1
2023-12-08T18:16:32.135Z,1005.1
2023-12-08T18:17:32.859Z,1005.1
2023-12-08T18:20:32.717Z,1005.1
2023-12-08T18:22:32.134Z,1005.1
2023-12-08T18:23:32.140Z,1005.1
2023-12-08T18:24:32.143Z,1005.1
2023-12-08T18:26:32.739Z,1005
2023-12-08T18:27:43.591Z,1005
2023-12-08T18:28:58.852Z,1005
2023-12-08T18:30:32.343Z,1005
2023-12-08T18:34:35.510Z,1005.1
2023-12-08T18:35:32.625Z,1005.2